sensor_id;sensor_type;location;lat;lon;timestamp;P1;durP1;ratioP1;P2;durP2;ratioP2
51660;SDS011;37741;49.748;8.490;2023-06-10T00:01:41;5.25;;;4.75;;
51660;SDS011;37741;49.748;8.490;2023-06-10T00:04:08;6.13;;;4.80;;
51660;SDS011;37741;49.748;8.490;2023-06-10T00:06:34;5.75;;;5.10;;
51660;SDS011;37741;49.748;8.490;2023-06-10T00:09:03;4.88;;;4.38;;
51660;SDS011;37741;49.748;8.490;2023-06-10T00:11:35;5.60;;;4.85;;
51660;SDS011;37741;49.748;8.490;2023-06-10T00:14:02;5.53;;;5.03;;
51660;SDS011;37741;49.748;8.490;2023-06-10T00:16:28;5.45;;;4.95;;
51660;SDS011;37741;49.748;8.490;2023-06-10T00:18:53;6.28;;;4.72;;
51660;SDS011;37741;49.748;8.490;2023-06-10T00:21:32;5.55;;;4.70;;
51660;SDS011;37741;49.748;8.490;2023-06-10T00:24:05;5.32;;;4.55;;
51660;SDS011;37741;49.748;8.490;2023-06-10T00:26:31;6.00;;;5.38;;
51660;SDS011;37741;49.748;8.490;2023-06-10T00:28:57;5.93;;;4.57;;
51660;SDS011;37741;49.748;8.490;2023-06-10T00:31:23;6.97;;;4.88;;
51660;SDS011;37741;49.748;8.490;2023-06-10T00:33:51;5.53;;;4.32;;
51660;SDS011;37741;49.748;8.490;2023-06-10T00:36:17;5.78;;;4.72;;
51660;SDS011;37741;49.748;8.490;2023-06-10T00:38:42;7.60;;;4.65;;
51660;SDS011;37741;49.748;8.490;2023-06-10T00:41:08;5.53;;;4.72;;
51660;SDS011;37741;49.748;8.490;2023-06-10T00:43:33;5.50;;;4.90;;
51660;SDS011;37741;49.748;8.490;2023-06-10T00:45:59;7.32;;;4.47;;
51660;SDS011;37741;49.748;8.490;2023-06-10T00:48:25;6.40;;;5.28;;
51660;SDS011;37741;49.748;8.490;2023-06-10T00:50:52;6.30;;;4.90;;
51660;SDS011;37741;49.748;8.490;2023-06-10T00:53:18;6.72;;;5.97;;
51660;SDS011;37741;49.748;8.490;2023-06-10T00:55:44;5.80;;;5.15;;
51660;SDS011;37741;49.748;8.490;2023-06-10T00:58:09;9.05;;;5.72;;
51660;SDS011;37741;49.748;8.490;2023-06-10T01:00:35;6.55;;;5.20;;
51660;SDS011;37741;49.748;8.490;2023-06-10T01:03:01;9.68;;;5.60;;
51660;SDS011;37741;49.748;8.490;2023-06-10T01:05:32;5.72;;;4.97;;
51660;SDS011;37741;49.748;8.490;2023-06-10T01:10:59;7.32;;;4.72;;
51660;SDS011;37741;49.748;8.490;2023-06-10T01:13:27;5.70;;;5.05;;
51660;SDS011;37741;49.748;8.490;2023-06-10T01:15:57;5.88;;;5.28;;
51660;SDS011;37741;49.748;8.490;2023-06-10T01:18:23;6.80;;;4.88;;
51660;SDS011;37741;49.748;8.490;2023-06-10T01:20:55;7.28;;;4.97;;
51660;SDS011;37741;49.748;8.490;2023-06-10T01:23:21;5.65;;;4.75;;
51660;SDS011;37741;49.748;8.490;2023-06-10T01:25:47;5.50;;;5.00;;
51660;SDS011;37741;49.748;8.490;2023-06-10T01:31:12;5.63;;;5.05;;
51660;SDS011;37741;49.748;8.490;2023-06-10T01:33:43;6.60;;;5.22;;
51660;SDS011;37741;49.748;8.490;2023-06-10T01:36:12;5.28;;;4.78;;
51660;SDS011;37741;49.748;8.490;2023-06-10T01:38:44;7.00;;;4.95;;
51660;SDS011;37741;49.748;8.490;2023-06-10T01:41:12;6.28;;;5.10;;
51660;SDS011;37741;49.748;8.490;2023-06-10T01:43:40;7.90;;;5.60;;
51660;SDS011;37741;49.748;8.490;2023-06-10T01:46:08;9.30;;;5.45;;
51660;SDS011;37741;49.748;8.490;2023-06-10T01:48:34;7.60;;;5.20;;
51660;SDS011;37741;49.748;8.490;2023-06-10T01:51:00;5.97;;;5.38;;
51660;SDS011;37741;49.748;8.490;2023-06-10T01:53:25;6.35;;;5.18;;
51660;SDS011;37741;49.748;8.490;2023-06-10T01:55:51;5.82;;;5.32;;
51660;SDS011;37741;49.748;8.490;2023-06-10T01:58:17;6.13;;;4.93;;
51660;SDS011;37741;49.748;8.490;2023-06-10T02:00:42;5.45;;;4.95;;
51660;SDS011;37741;49.748;8.490;2023-06-10T02:03:08;6.60;;;5.65;;
51660;SDS011;37741;49.748;8.490;2023-06-10T02:05:33;5.85;;;5.32;;
51660;SDS011;37741;49.748;8.490;2023-06-10T02:07:59;6.35;;;5.05;;
51660;SDS011;37741;49.748;8.490;2023-06-10T02:10:25;6.65;;;5.22;;
51660;SDS011;37741;49.748;8.490;2023-06-10T02:12:51;7.28;;;5.30;;
51660;SDS011;37741;49.748;8.490;2023-06-10T02:15:17;6.07;;;5.38;;
51660;SDS011;37741;49.748;8.490;2023-06-10T02:17:42;6.18;;;5.25;;
51660;SDS011;37741;49.748;8.490;2023-06-10T02:20:09;7.60;;;5.47;;
51660;SDS011;37741;49.748;8.490;2023-06-10T02:22:36;5.65;;;5.10;;
51660;SDS011;37741;49.748;8.490;2023-06-10T02:25:01;6.55;;;5.70;;
51660;SDS011;37741;49.748;8.490;2023-06-10T02:27:28;6.07;;;5.47;;
51660;SDS011;37741;49.748;8.490;2023-06-10T02:29:55;6.07;;;5.20;;
51660;SDS011;37741;49.748;8.490;2023-06-10T02:32:21;6.35;;;5.75;;
51660;SDS011;37741;49.748;8.490;2023-06-10T02:34:47;7.35;;;5.30;;
51660;SDS011;37741;49.748;8.490;2023-06-10T02:37:14;7.40;;;6.28;;
51660;SDS011;37741;49.748;8.490;2023-06-10T02:39:40;6.38;;;5.35;;
51660;SDS011;37741;49.748;8.490;2023-06-10T02:42:05;7.80;;;5.57;;
51660;SDS011;37741;49.748;8.490;2023-06-10T02:44:31;5.97;;;5.38;;
51660;SDS011;37741;49.748;8.490;2023-06-10T02:46:57;7.20;;;5.68;;
51660;SDS011;37741;49.748;8.490;2023-06-10T02:49:23;7.50;;;5.45;;
51660;SDS011;37741;49.748;8.490;2023-06-10T02:51:49;8.93;;;5.25;;
51660;SDS011;37741;49.748;8.490;2023-06-10T02:54:18;6.97;;;5.55;;
51660;SDS011;37741;49.748;8.490;2023-06-10T02:56:44;6.30;;;5.68;;
51660;SDS011;37741;49.748;8.490;2023-06-10T02:59:10;6.90;;;5.57;;
51660;SDS011;37741;49.748;8.490;2023-06-10T03:01:36;8.27;;;6.10;;
51660;SDS011;37741;49.748;8.490;2023-06-10T03:04:05;7.15;;;5.15;;
51660;SDS011;37741;49.748;8.490;2023-06-10T03:06:31;6.60;;;5.60;;
51660;SDS011;37741;49.748;8.490;2023-06-10T03:08:59;6.78;;;5.25;;
51660;SDS011;37741;49.748;8.490;2023-06-10T03:11:25;6.18;;;5.57;;
51660;SDS011;37741;49.748;8.490;2023-06-10T03:13:51;5.93;;;5.32;;
51660;SDS011;37741;49.748;8.490;2023-06-10T03:16:18;8.00;;;5.40;;
51660;SDS011;37741;49.748;8.490;2023-06-10T03:18:44;6.80;;;6.10;;
51660;SDS011;37741;49.748;8.490;2023-06-10T03:21:10;6.35;;;5.47;;
51660;SDS011;37741;49.748;8.490;2023-06-10T03:23:36;7.68;;;6.22;;
51660;SDS011;37741;49.748;8.490;2023-06-10T03:26:02;6.30;;;5.70;;
51660;SDS011;37741;49.748;8.490;2023-06-10T03:28:29;9.13;;;6.75;;
51660;SDS011;37741;49.748;8.490;2023-06-10T03:30:55;5.72;;;5.15;;
51660;SDS011;37741;49.748;8.490;2023-06-10T03:33:21;6.47;;;5.70;;
51660;SDS011;37741;49.748;8.490;2023-06-10T03:35:47;7.35;;;5.93;;
51660;SDS011;37741;49.748;8.490;2023-06-10T03:38:13;7.20;;;5.50;;
51660;SDS011;37741;49.748;8.490;2023-06-10T03:40:38;6.50;;;5.90;;
51660;SDS011;37741;49.748;8.490;2023-06-10T03:43:04;8.32;;;5.97;;
51660;SDS011;37741;49.748;8.490;2023-06-10T03:45:30;7.63;;;5.93;;
51660;SDS011;37741;49.748;8.490;2023-06-10T03:47:57;7.03;;;5.57;;
51660;SDS011;37741;49.748;8.490;2023-06-10T03:50:23;7.80;;;7.03;;
51660;SDS011;37741;49.748;8.490;2023-06-10T03:52:49;5.70;;;5.20;;
51660;SDS011;37741;49.748;8.490;2023-06-10T03:55:16;6.03;;;5.43;;
51660;SDS011;37741;49.748;8.490;2023-06-10T03:57:42;7.03;;;5.85;;
51660;SDS011;37741;49.748;8.490;2023-06-10T04:00:08;7.03;;;5.65;;
51660;SDS011;37741;49.748;8.490;2023-06-10T04:02:38;7.82;;;6.05;;
51660;SDS011;37741;49.748;8.490;2023-06-10T04:05:11;7.78;;;5.75;;
51660;SDS011;37741;49.748;8.490;2023-06-10T04:07:37;6.55;;;5.75;;
51660;SDS011;37741;49.748;8.490;2023-06-10T04:10:07;8.57;;;6.03;;
51660;SDS011;37741;49.748;8.490;2023-06-10T04:12:33;6.88;;;6.18;;
51660;SDS011;37741;49.748;8.490;2023-06-10T04:15:03;8.18;;;6.60;;
51660;SDS011;37741;49.748;8.490;2023-06-10T04:17:32;6.63;;;5.65;;
51660;SDS011;37741;49.748;8.490;2023-06-10T04:19:57;6.28;;;5.38;;
51660;SDS011;37741;49.748;8.490;2023-06-10T04:22:23;5.93;;;5.40;;
51660;SDS011;37741;49.748;8.490;2023-06-10T04:24:49;7.05;;;6.38;;
51660;SDS011;37741;49.748;8.490;2023-06-10T04:27:15;8.60;;;6.60;;
51660;SDS011;37741;49.748;8.490;2023-06-10T04:29:41;6.90;;;5.47;;
51660;SDS011;37741;49.748;8.490;2023-06-10T04:32:06;6.68;;;5.72;;
51660;SDS011;37741;49.748;8.490;2023-06-10T04:34:33;6.95;;;6.25;;
51660;SDS011;37741;49.748;8.490;2023-06-10T04:36:59;6.78;;;5.65;;
51660;SDS011;37741;49.748;8.490;2023-06-10T04:39:24;6.07;;;5.40;;
51660;SDS011;37741;49.748;8.490;2023-06-10T04:41:51;6.80;;;5.45;;
51660;SDS011;37741;49.748;8.490;2023-06-10T04:44:17;9.45;;;6.57;;
51660;SDS011;37741;49.748;8.490;2023-06-10T04:46:43;5.78;;;5.18;;
51660;SDS011;37741;49.748;8.490;2023-06-10T04:49:09;7.47;;;5.53;;
51660;SDS011;37741;49.748;8.490;2023-06-10T04:51:38;7.32;;;6.07;;
51660;SDS011;37741;49.748;8.490;2023-06-10T04:54:17;7.15;;;5.57;;
51660;SDS011;37741;49.748;8.490;2023-06-10T04:56:42;8.10;;;5.88;;
51660;SDS011;37741;49.748;8.490;2023-06-10T04:59:08;6.43;;;5.80;;
51660;SDS011;37741;49.748;8.490;2023-06-10T05:01:33;6.40;;;5.75;;
51660;SDS011;37741;49.748;8.490;2023-06-10T05:03:59;8.20;;;6.20;;
51660;SDS011;37741;49.748;8.490;2023-06-10T05:06:25;10.45;;;6.30;;
51660;SDS011;37741;49.748;8.490;2023-06-10T05:08:50;6.75;;;5.78;;
51660;SDS011;37741;49.748;8.490;2023-06-10T05:11:16;5.75;;;5.22;;
51660;SDS011;37741;49.748;8.490;2023-06-10T05:13:42;7.13;;;5.35;;
51660;SDS011;37741;49.748;8.490;2023-06-10T05:16:09;8.27;;;6.05;;
51660;SDS011;37741;49.748;8.490;2023-06-10T05:18:34;7.30;;;5.70;;
51660;SDS011;37741;49.748;8.490;2023-06-10T05:21:00;7.47;;;5.25;;
51660;SDS011;37741;49.748;8.490;2023-06-10T05:23:28;6.80;;;5.68;;
51660;SDS011;37741;49.748;8.490;2023-06-10T05:25:54;8.57;;;5.82;;
51660;SDS011;37741;49.748;8.490;2023-06-10T05:28:20;8.82;;;6.15;;
51660;SDS011;37741;49.748;8.490;2023-06-10T05:30:45;10.75;;;6.20;;
51660;SDS011;37741;49.748;8.490;2023-06-10T05:33:11;6.10;;;5.18;;
51660;SDS011;37741;49.748;8.490;2023-06-10T05:35:36;7.20;;;5.60;;
51660;SDS011;37741;49.748;8.490;2023-06-10T05:38:02;6.32;;;5.60;;
51660;SDS011;37741;49.748;8.490;2023-06-10T05:40:28;7.50;;;5.75;;
51660;SDS011;37741;49.748;8.490;2023-06-10T05:42:53;7.28;;;5.60;;
51660;SDS011;37741;49.748;8.490;2023-06-10T05:45:19;8.05;;;5.70;;
51660;SDS011;37741;49.748;8.490;2023-06-10T05:47:44;6.95;;;5.05;;
51660;SDS011;37741;49.748;8.490;2023-06-10T05:50:10;7.97;;;4.95;;
51660;SDS011;37741;49.748;8.490;2023-06-10T05:52:36;8.27;;;5.18;;
51660;SDS011;37741;49.748;8.490;2023-06-10T05:55:02;6.35;;;5.75;;
51660;SDS011;37741;49.748;8.490;2023-06-10T05:57:28;7.18;;;4.85;;
51660;SDS011;37741;49.748;8.490;2023-06-10T05:59:54;9.48;;;5.05;;
51660;SDS011;37741;49.748;8.490;2023-06-10T06:02:20;7.57;;;5.53;;
51660;SDS011;37741;49.748;8.490;2023-06-10T06:04:45;7.03;;;5.68;;
51660;SDS011;37741;49.748;8.490;2023-06-10T06:07:11;7.97;;;5.50;;
51660;SDS011;37741;49.748;8.490;2023-06-10T06:09:37;7.72;;;6.00;;
51660;SDS011;37741;49.748;8.490;2023-06-10T06:12:02;7.18;;;5.43;;
51660;SDS011;37741;49.748;8.490;2023-06-10T06:14:30;6.60;;;5.63;;
51660;SDS011;37741;49.748;8.490;2023-06-10T06:16:56;9.98;;;5.28;;
51660;SDS011;37741;49.748;8.490;2023-06-10T06:19:22;4.85;;;4.35;;
51660;SDS011;37741;49.748;8.490;2023-06-10T06:21:48;7.05;;;5.18;;
51660;SDS011;37741;49.748;8.490;2023-06-10T06:24:13;5.60;;;4.80;;
51660;SDS011;37741;49.748;8.490;2023-06-10T06:26:40;6.32;;;5.28;;
51660;SDS011;37741;49.748;8.490;2023-06-10T06:29:06;6.97;;;5.38;;
51660;SDS011;37741;49.748;8.490;2023-06-10T06:31:31;6.38;;;5.28;;
51660;SDS011;37741;49.748;8.490;2023-06-10T06:33:57;5.43;;;4.82;;
51660;SDS011;37741;49.748;8.490;2023-06-10T06:36:23;5.68;;;5.07;;
51660;SDS011;37741;49.748;8.490;2023-06-10T06:38:48;7.10;;;4.88;;
51660;SDS011;37741;49.748;8.490;2023-06-10T06:41:14;6.20;;;5.15;;
51660;SDS011;37741;49.748;8.490;2023-06-10T06:43:39;5.55;;;5.05;;
51660;SDS011;37741;49.748;8.490;2023-06-10T06:46:05;4.78;;;4.32;;
51660;SDS011;37741;49.748;8.490;2023-06-10T06:48:31;5.18;;;4.68;;
51660;SDS011;37741;49.748;8.490;2023-06-10T06:50:56;5.05;;;4.55;;
51660;SDS011;37741;49.748;8.490;2023-06-10T06:53:23;6.65;;;5.80;;
51660;SDS011;37741;49.748;8.490;2023-06-10T06:55:48;5.68;;;4.90;;
51660;SDS011;37741;49.748;8.490;2023-06-10T06:58:14;5.03;;;4.53;;
51660;SDS011;37741;49.748;8.490;2023-06-10T07:00:40;6.68;;;5.28;;
51660;SDS011;37741;49.748;8.490;2023-06-10T07:03:05;5.95;;;5.32;;
51660;SDS011;37741;49.748;8.490;2023-06-10T07:05:31;5.35;;;4.40;;
51660;SDS011;37741;49.748;8.490;2023-06-10T07:07:56;5.78;;;5.22;;
51660;SDS011;37741;49.748;8.490;2023-06-10T07:10:25;5.68;;;4.88;;
51660;SDS011;37741;49.748;8.490;2023-06-10T07:12:51;5.40;;;4.32;;
51660;SDS011;37741;49.748;8.490;2023-06-10T07:15:17;6.32;;;4.88;;
51660;SDS011;37741;49.748;8.490;2023-06-10T07:17:43;7.22;;;5.25;;
51660;SDS011;37741;49.748;8.490;2023-06-10T07:20:08;6.28;;;5.20;;
51660;SDS011;37741;49.748;8.490;2023-06-10T07:22:34;5.15;;;4.65;;
51660;SDS011;37741;49.748;8.490;2023-06-10T07:25:00;5.15;;;4.60;;
51660;SDS011;37741;49.748;8.490;2023-06-10T07:27:26;7.50;;;5.30;;
51660;SDS011;37741;49.748;8.490;2023-06-10T07:29:51;5.18;;;4.68;;
51660;SDS011;37741;49.748;8.490;2023-06-10T07:32:17;6.43;;;5.25;;
51660;SDS011;37741;49.748;8.490;2023-06-10T07:34:45;6.88;;;5.40;;
51660;SDS011;37741;49.748;8.490;2023-06-10T07:37:11;5.05;;;4.55;;
51660;SDS011;37741;49.748;8.490;2023-06-10T07:39:36;5.50;;;5.00;;
51660;SDS011;37741;49.748;8.490;2023-06-10T07:42:02;7.45;;;5.38;;
51660;SDS011;37741;49.748;8.490;2023-06-10T07:44:28;8.57;;;4.93;;
51660;SDS011;37741;49.748;8.490;2023-06-10T07:46:53;7.22;;;6.45;;
51660;SDS011;37741;49.748;8.490;2023-06-10T07:49:19;6.90;;;5.38;;
51660;SDS011;37741;49.748;8.490;2023-06-10T07:51:44;5.25;;;4.50;;
51660;SDS011;37741;49.748;8.490;2023-06-10T07:54:10;6.13;;;4.85;;
51660;SDS011;37741;49.748;8.490;2023-06-10T07:56:37;8.95;;;5.43;;
51660;SDS011;37741;49.748;8.490;2023-06-10T07:59:03;7.72;;;4.95;;
51660;SDS011;37741;49.748;8.490;2023-06-10T08:01:28;9.98;;;4.93;;
51660;SDS011;37741;49.748;8.490;2023-06-10T08:03:55;5.72;;;5.18;;
51660;SDS011;37741;49.748;8.490;2023-06-10T08:06:20;5.50;;;4.38;;
51660;SDS011;37741;49.748;8.490;2023-06-10T08:08:46;7.50;;;4.93;;
51660;SDS011;37741;49.748;8.490;2023-06-10T08:11:12;6.72;;;5.13;;
51660;SDS011;37741;49.748;8.490;2023-06-10T08:13:37;6.30;;;5.32;;
51660;SDS011;37741;49.748;8.490;2023-06-10T08:16:03;6.10;;;5.45;;
51660;SDS011;37741;49.748;8.490;2023-06-10T08:18:29;5.43;;;4.78;;
51660;SDS011;37741;49.748;8.490;2023-06-10T08:20:55;5.57;;;5.05;;
51660;SDS011;37741;49.748;8.490;2023-06-10T08:23:20;5.78;;;5.22;;
51660;SDS011;37741;49.748;8.490;2023-06-10T08:25:46;8.57;;;4.97;;
51660;SDS011;37741;49.748;8.490;2023-06-10T08:28:11;5.28;;;4.72;;
51660;SDS011;37741;49.748;8.490;2023-06-10T08:30:37;5.57;;;4.78;;
51660;SDS011;37741;49.748;8.490;2023-06-10T08:33:03;5.32;;;4.72;;
51660;SDS011;37741;49.748;8.490;2023-06-10T08:35:28;8.77;;;5.35;;
51660;SDS011;37741;49.748;8.490;2023-06-10T08:37:54;5.70;;;5.00;;
51660;SDS011;37741;49.748;8.490;2023-06-10T08:40:20;5.72;;;5.13;;
51660;SDS011;37741;49.748;8.490;2023-06-10T08:42:48;5.78;;;4.85;;
51660;SDS011;37741;49.748;8.490;2023-06-10T08:45:18;5.80;;;5.20;;
51660;SDS011;37741;49.748;8.490;2023-06-10T08:47:46;5.38;;;4.88;;
51660;SDS011;37741;49.748;8.490;2023-06-10T08:50:18;6.35;;;5.43;;
51660;SDS011;37741;49.748;8.490;2023-06-10T08:52:44;6.22;;;5.50;;
51660;SDS011;37741;49.748;8.490;2023-06-10T08:55:15;5.18;;;4.55;;
51660;SDS011;37741;49.748;8.490;2023-06-10T08:57:45;6.82;;;5.05;;
51660;SDS011;37741;49.748;8.490;2023-06-10T09:00:13;5.85;;;4.93;;
51660;SDS011;37741;49.748;8.490;2023-06-10T09:02:39;11.90;;;5.35;;
51660;SDS011;37741;49.748;8.490;2023-06-10T09:05:05;10.90;;;5.60;;
51660;SDS011;37741;49.748;8.490;2023-06-10T09:07:32;9.20;;;5.43;;
51660;SDS011;37741;49.748;8.490;2023-06-10T09:10:01;11.25;;;5.88;;
51660;SDS011;37741;49.748;8.490;2023-06-10T09:12:29;7.80;;;5.53;;
51660;SDS011;37741;49.748;8.490;2023-06-10T09:14:55;8.23;;;5.55;;
51660;SDS011;37741;49.748;8.490;2023-06-10T09:17:21;7.47;;;5.45;;
51660;SDS011;37741;49.748;8.490;2023-06-10T09:19:47;6.35;;;5.05;;
51660;SDS011;37741;49.748;8.490;2023-06-10T09:22:14;7.72;;;5.20;;
51660;SDS011;37741;49.748;8.490;2023-06-10T09:24:39;7.90;;;5.10;;
51660;SDS011;37741;49.748;8.490;2023-06-10T09:27:07;5.55;;;4.60;;
51660;SDS011;37741;49.748;8.490;2023-06-10T09:32:12;8.38;;;5.20;;
51660;SDS011;37741;49.748;8.490;2023-06-10T09:34:38;6.10;;;5.13;;
51660;SDS011;37741;49.748;8.490;2023-06-10T09:37:04;5.90;;;5.18;;
51660;SDS011;37741;49.748;8.490;2023-06-10T09:39:30;7.60;;;5.25;;
51660;SDS011;37741;49.748;8.490;2023-06-10T09:41:56;5.30;;;4.80;;
51660;SDS011;37741;49.748;8.490;2023-06-10T09:44:21;4.95;;;4.45;;
51660;SDS011;37741;49.748;8.490;2023-06-10T09:46:50;6.78;;;4.90;;
51660;SDS011;37741;49.748;8.490;2023-06-10T09:49:16;6.68;;;5.18;;
51660;SDS011;37741;49.748;8.490;2023-06-10T09:51:49;6.82;;;5.47;;
51660;SDS011;37741;49.748;8.490;2023-06-10T09:54:16;6.28;;;5.00;;
51660;SDS011;37741;49.748;8.490;2023-06-10T09:56:41;10.20;;;5.40;;
51660;SDS011;37741;49.748;8.490;2023-06-10T09:59:07;6.68;;;5.25;;
51660;SDS011;37741;49.748;8.490;2023-06-10T10:01:34;5.55;;;5.05;;
51660;SDS011;37741;49.748;8.490;2023-06-10T10:03:59;6.95;;;6.25;;
51660;SDS011;37741;49.748;8.490;2023-06-10T10:06:26;26.23;;;17.48;;
51660;SDS011;37741;49.748;8.490;2023-06-10T10:08:52;29.02;;;22.83;;
51660;SDS011;37741;49.748;8.490;2023-06-10T10:11:18;29.25;;;18.98;;
51660;SDS011;37741;49.748;8.490;2023-06-10T10:13:49;22.67;;;16.65;;
51660;SDS011;37741;49.748;8.490;2023-06-10T10:16:19;66.60;;;33.00;;
51660;SDS011;37741;49.748;8.490;2023-06-10T10:18:52;58.75;;;32.88;;
51660;SDS011;37741;49.748;8.490;2023-06-10T10:21:24;41.67;;;24.40;;
51660;SDS011;37741;49.748;8.490;2023-06-10T10:24:07;29.45;;;19.38;;
51660;SDS011;37741;49.748;8.490;2023-06-10T10:26:41;18.80;;;14.45;;
51660;SDS011;37741;49.748;8.490;2023-06-10T10:29:11;14.43;;;11.15;;
51660;SDS011;37741;49.748;8.490;2023-06-10T10:31:50;11.88;;;8.15;;
51660;SDS011;37741;49.748;8.490;2023-06-10T10:34:21;8.07;;;6.93;;
51660;SDS011;37741;49.748;8.490;2023-06-10T10:37:00;7.93;;;6.90;;
51660;SDS011;37741;49.748;8.490;2023-06-10T10:39:26;8.75;;;6.65;;
51660;SDS011;37741;49.748;8.490;2023-06-10T10:41:53;7.60;;;6.80;;
51660;SDS011;37741;49.748;8.490;2023-06-10T10:44:20;7.70;;;5.82;;
51660;SDS011;37741;49.748;8.490;2023-06-10T10:46:49;7.97;;;6.05;;
51660;SDS011;37741;49.748;8.490;2023-06-10T10:49:16;9.23;;;5.95;;
51660;SDS011;37741;49.748;8.490;2023-06-10T10:51:59;8.77;;;6.03;;
51660;SDS011;37741;49.748;8.490;2023-06-10T10:54:33;6.78;;;5.57;;
51660;SDS011;37741;49.748;8.490;2023-06-10T11:05:05;6.15;;;5.03;;
51660;SDS011;37741;49.748;8.490;2023-06-10T11:07:32;5.38;;;4.88;;
51660;SDS011;37741;49.748;8.490;2023-06-10T11:10:03;5.68;;;4.78;;
51660;SDS011;37741;49.748;8.490;2023-06-10T11:15:09;5.30;;;4.80;;
51660;SDS011;37741;49.748;8.490;2023-06-10T11:17:35;5.90;;;5.30;;
51660;SDS011;37741;49.748;8.490;2023-06-10T11:20:00;7.38;;;4.97;;
51660;SDS011;37741;49.748;8.490;2023-06-10T11:22:26;6.22;;;4.75;;
51660;SDS011;37741;49.748;8.490;2023-06-10T11:24:52;4.45;;;4.05;;
51660;SDS011;37741;49.748;8.490;2023-06-10T11:27:18;6.20;;;4.93;;
51660;SDS011;37741;49.748;8.490;2023-06-10T11:30:27;5.32;;;4.82;;
51660;SDS011;37741;49.748;8.490;2023-06-10T11:32:44;5.47;;;4.65;;
51660;SDS011;37741;49.748;8.490;2023-06-10T11:35:16;4.78;;;3.72;;
51660;SDS011;37741;49.748;8.490;2023-06-10T11:37:43;5.40;;;4.60;;
51660;SDS011;37741;49.748;8.490;2023-06-10T11:40:09;4.50;;;4.00;;
51660;SDS011;37741;49.748;8.490;2023-06-10T11:42:40;6.55;;;4.05;;
51660;SDS011;37741;49.748;8.490;2023-06-10T11:45:07;5.25;;;3.88;;
51660;SDS011;37741;49.748;8.490;2023-06-10T11:47:33;4.82;;;3.97;;
51660;SDS011;37741;49.748;8.490;2023-06-10T11:49:59;4.20;;;3.80;;
51660;SDS011;37741;49.748;8.490;2023-06-10T11:52:30;5.65;;;3.92;;
51660;SDS011;37741;49.748;8.490;2023-06-10T11:55:04;4.32;;;3.70;;
51660;SDS011;37741;49.748;8.490;2023-06-10T11:57:33;7.18;;;3.97;;
51660;SDS011;37741;49.748;8.490;2023-06-10T12:00:04;4.53;;;3.80;;
51660;SDS011;37741;49.748;8.490;2023-06-10T12:02:33;4.32;;;3.92;;
51660;SDS011;37741;49.748;8.490;2023-06-10T12:05:12;6.82;;;3.88;;
51660;SDS011;37741;49.748;8.490;2023-06-10T12:07:37;4.07;;;3.58;;
51660;SDS011;37741;49.748;8.490;2023-06-10T12:10:03;5.28;;;3.65;;
51660;SDS011;37741;49.748;8.490;2023-06-10T12:12:29;5.20;;;3.20;;
51660;SDS011;37741;49.748;8.490;2023-06-10T12:14:56;4.10;;;3.58;;
51660;SDS011;37741;49.748;8.490;2023-06-10T12:20:01;4.20;;;3.10;;
51660;SDS011;37741;49.748;8.490;2023-06-10T12:22:47;5.55;;;3.17;;
51660;SDS011;37741;49.748;8.490;2023-06-10T12:25:13;4.63;;;3.17;;
51660;SDS011;37741;49.748;8.490;2023-06-10T12:27:40;5.25;;;3.92;;
51660;SDS011;37741;49.748;8.490;2023-06-10T12:30:18;5.18;;;3.65;;
51660;SDS011;37741;49.748;8.490;2023-06-10T12:32:45;4.07;;;3.55;;
51660;SDS011;37741;49.748;8.490;2023-06-10T12:35:19;5.20;;;3.47;;
51660;SDS011;37741;49.748;8.490;2023-06-10T12:37:57;3.55;;;3.10;;
51660;SDS011;37741;49.748;8.490;2023-06-10T12:40:34;3.72;;;3.00;;
51660;SDS011;37741;49.748;8.490;2023-06-10T12:43:03;4.53;;;3.42;;
51660;SDS011;37741;49.748;8.490;2023-06-10T12:45:33;5.00;;;3.00;;
51660;SDS011;37741;49.748;8.490;2023-06-10T12:48:16;4.80;;;3.33;;
51660;SDS011;37741;49.748;8.490;2023-06-10T12:50:50;4.15;;;3.10;;
51660;SDS011;37741;49.748;8.490;2023-06-10T12:53:20;4.85;;;3.50;;
51660;SDS011;37741;49.748;8.490;2023-06-10T12:55:48;4.13;;;3.65;;
51660;SDS011;37741;49.748;8.490;2023-06-10T12:58:15;3.67;;;2.72;;
51660;SDS011;37741;49.748;8.490;2023-06-10T13:00:41;4.40;;;3.30;;
51660;SDS011;37741;49.748;8.490;2023-06-10T13:03:08;5.40;;;3.63;;
51660;SDS011;37741;49.748;8.490;2023-06-10T13:05:37;6.43;;;3.38;;
51660;SDS011;37741;49.748;8.490;2023-06-10T13:08:06;3.35;;;3.03;;
51660;SDS011;37741;49.748;8.490;2023-06-10T13:10:35;3.97;;;3.22;;
51660;SDS011;37741;49.748;8.490;2023-06-10T13:13:02;5.22;;;3.08;;
51660;SDS011;37741;49.748;8.490;2023-06-10T13:15:30;4.97;;;2.88;;
51660;SDS011;37741;49.748;8.490;2023-06-10T13:17:56;4.78;;;3.30;;
51660;SDS011;37741;49.748;8.490;2023-06-10T13:20:22;4.55;;;3.10;;
51660;SDS011;37741;49.748;8.490;2023-06-10T13:22:47;6.00;;;3.47;;
51660;SDS011;37741;49.748;8.490;2023-06-10T13:25:15;3.80;;;3.40;;
51660;SDS011;37741;49.748;8.490;2023-06-10T13:27:41;4.25;;;3.20;;
51660;SDS011;37741;49.748;8.490;2023-06-10T13:30:07;3.78;;;3.13;;
51660;SDS011;37741;49.748;8.490;2023-06-10T13:32:35;6.93;;;3.67;;
51660;SDS011;37741;49.748;8.490;2023-06-10T13:35:01;4.57;;;3.53;;
51660;SDS011;37741;49.748;8.490;2023-06-10T13:37:27;11.20;;;4.90;;
51660;SDS011;37741;49.748;8.490;2023-06-10T13:39:52;20.48;;;4.20;;
51660;SDS011;37741;49.748;8.490;2023-06-10T13:42:18;13.13;;;4.88;;
51660;SDS011;37741;49.748;8.490;2023-06-10T13:44:45;13.98;;;5.13;;
51660;SDS011;37741;49.748;8.490;2023-06-10T13:47:12;21.92;;;5.78;;
51660;SDS011;37741;49.748;8.490;2023-06-10T13:49:38;9.88;;;3.33;;
51660;SDS011;37741;49.748;8.490;2023-06-10T13:52:05;8.85;;;3.25;;
51660;SDS011;37741;49.748;8.490;2023-06-10T13:54:31;11.88;;;3.70;;
51660;SDS011;37741;49.748;8.490;2023-06-10T13:56:57;9.95;;;3.58;;
51660;SDS011;37741;49.748;8.490;2023-06-10T13:59:23;7.35;;;3.60;;
51660;SDS011;37741;49.748;8.490;2023-06-10T14:01:48;6.65;;;3.30;;
51660;SDS011;37741;49.748;8.490;2023-06-10T14:04:14;4.50;;;3.10;;
51660;SDS011;37741;49.748;8.490;2023-06-10T14:06:46;6.05;;;3.85;;
51660;SDS011;37741;49.748;8.490;2023-06-10T14:09:18;4.72;;;3.50;;
51660;SDS011;37741;49.748;8.490;2023-06-10T14:11:44;8.98;;;3.83;;
51660;SDS011;37741;49.748;8.490;2023-06-10T14:14:09;5.45;;;3.60;;
51660;SDS011;37741;49.748;8.490;2023-06-10T14:16:35;4.28;;;3.38;;
51660;SDS011;37741;49.748;8.490;2023-06-10T14:19:01;5.88;;;3.50;;
51660;SDS011;37741;49.748;8.490;2023-06-10T14:21:27;3.80;;;3.05;;
51660;SDS011;37741;49.748;8.490;2023-06-10T14:23:52;4.05;;;3.03;;
51660;SDS011;37741;49.748;8.490;2023-06-10T14:26:18;5.80;;;3.88;;
51660;SDS011;37741;49.748;8.490;2023-06-10T14:28:47;4.50;;;3.75;;
51660;SDS011;37741;49.748;8.490;2023-06-10T14:31:14;5.70;;;3.67;;
51660;SDS011;37741;49.748;8.490;2023-06-10T14:33:46;3.80;;;3.20;;
51660;SDS011;37741;49.748;8.490;2023-06-10T14:36:12;5.72;;;3.65;;
51660;SDS011;37741;49.748;8.490;2023-06-10T14:38:38;5.35;;;3.05;;
51660;SDS011;37741;49.748;8.490;2023-06-10T14:41:03;6.40;;;3.42;;
51660;SDS011;37741;49.748;8.490;2023-06-10T14:43:29;4.82;;;3.72;;
51660;SDS011;37741;49.748;8.490;2023-06-10T14:45:55;4.15;;;3.25;;
51660;SDS011;37741;49.748;8.490;2023-06-10T14:48:21;3.60;;;2.70;;
51660;SDS011;37741;49.748;8.490;2023-06-10T14:50:47;3.95;;;3.15;;
51660;SDS011;37741;49.748;8.490;2023-06-10T14:53:16;4.65;;;2.97;;
51660;SDS011;37741;49.748;8.490;2023-06-10T14:55:42;4.55;;;3.90;;
51660;SDS011;37741;49.748;8.490;2023-06-10T14:58:08;3.92;;;3.20;;
51660;SDS011;37741;49.748;8.490;2023-06-10T15:00:33;4.25;;;3.50;;
51660;SDS011;37741;49.748;8.490;2023-06-10T15:02:59;4.13;;;2.88;;
51660;SDS011;37741;49.748;8.490;2023-06-10T15:05:24;3.95;;;3.00;;
51660;SDS011;37741;49.748;8.490;2023-06-10T15:07:50;3.47;;;2.90;;